Tiempo atmosférico en la estación meteorológica de San Clemente, Cuenca (728 m.)



Fecha
DESCASC
Temp. máxima en grados centígrados (hora)
DESCASC
Temp. mínima en grados centígrados (hora)
DESCASC
Temp. media en grados centígrados
DESCASC
Racha de viento máxima en m/sg (hora)
DESCASC
Velocidad máxima media en intervalos de 10 minutos(hora)
DESCASC
Precipitaciones diarias en mm
DESCASC
Precipitaciones de 00:00 a 06:00 en mm
DESCASC
Precipitaciones de 06:00 a 12:00 en mm
DESCASC
Precipitaciones de 12:00 a 18:00 en mm
DESCASC
Precipitaciones de 18:00 a 24:00 en mm
DESCASC
10-07-2020 33.4 (19:20) 15.2 (06:00) 24.3 9.17 (23:40) 5 (23:30) 0 0 0 0 0
09-07-2020 31.6 (16:10) 16.9 (23:59) 24.3 -- (--) -- (--) 0.8 0 0 0 0.8
08-07-2020 31.9 (14:40) 20.5 (05:30) 26.2 -- (--) -- (--) 8.2 0 0 6.8 1.4
07-07-2020 38.3 (17:50) 19 (06:20) 28.6 -- (--) -- (--) 0 0 0 0 0
06-07-2020 37.3 (17:30) 17.6 (00:00) 27.4 10.56 (17:10) 5.83 (17:40) 0 0 0 0 0
05-07-2020 36.3 (18:20) 18.3 (00:00) 27.3 9.44 (17:30) 4.72 (00:10) 0 0 0 0 0
04-07-2020 35.3 (17:50) 18.1 (00:00) 26.7 10.56 (23:40) 6.11 (23:20) 0 0 0 0 0
03-07-2020 32.7 (17:40) 14.4 (06:50) 23.6 9.17 (23:50) 5.56 (23:50) 0 0 0 0 0
02-07-2020 34.2 (16:40) 16 (00:00) 25.1 15 (16:00) 8.61 (18:10) 0 0 0 0 0
01-07-2020 35.9 (17:10) 17 (00:00) 26.5 -- (--) -- (--) 0 0 0 0 0
30-06-2020 36.1 (17:30) 19.8 (00:00) 27.9 13.61 (01:10) 6.67 (01:10) 0 0 0 0 0
29-06-2020 37 (17:40) 16.8 (00:00) 26.9 9.44 (23:59) 5.28 (23:20) 0 0 0 0 0
28-06-2020 34.8 (17:10) 15.3 (00:00) 25 10.28 (17:40) 5.83 (18:40) 0 0 0 0 0
27-06-2020 32.6 (19:30) 14 (00:00) 23.3 9.72 (16:10) 5.56 (16:10) 0 0 0 0 0
26-06-2020 33.4 (17:00) 18 (00:00) 25.7 -- (--) -- (--) 0 0 0 0 0
25-06-2020 34.1 (15:40) 16.8 (00:00) 25.4 15 (23:00) 6.94 (23:10) 0 0 0 0 0
24-06-2020 32 (18:20) 17.6 (00:00) 24.8 12.22 (15:50) 7.5 (15:50) 0 0 0 0 0
23-06-2020 34.2 (17:00) 18 (00:00) 26.1 13.33 (01:30) 6.67 (09:10) 0 0 0 0 0
22-06-2020 -- (--) -- (--) -- -- (--) -- (--) -- -- -- -- 0
21-06-2020 -- (--) -- (--) -- -- (--) -- (--) -- -- -- -- --
20-06-2020 -- (--) -- (--) -- -- (--) -- (--) -- -- -- -- --
19-06-2020 -- (--) -- (--) -- -- (--) -- (--) -- -- -- -- --
18-06-2020 -- (--) -- (--) -- -- (--) -- (--) -- -- -- -- --
17-06-2020 -- (--) -- (--) -- -- (--) -- (--) -- 0 -- -- --
16-06-2020 26.6 (16:40) 12.7 (00:00) 19.7 15 (16:40) 8.33 (16:40) 0 0 0 0 0
15-06-2020 27.7 (17:40) 11 (00:00) 19.4 13.61 (18:00) 7.5 (18:00) 0 0 0 0 0
14-06-2020 26.6 (18:20) 10.2 (00:00) 18.4 13.89 (14:00) 6.67 (18:10) 0 0 0 0 0
13-06-2020 23.6 (18:20) 8.1 (00:00) 15.9 10.83 (18:30) 6.11 (00:40) 0 0 0 0 0
12-06-2020 20.6 (15:30) 11.4 (00:00) 16 16.11 (15:30) 10 (00:20) 0 0 0 0 0

Gráficas

Temp. máximas Temp. mínimas Temp. medias Precipitaciones Rachas de viento máximas Velocidades máximas media en intervalos de 10 minutos

Datos horarios

Fecha y hora oficial Temperatura (ºC) Velocidad del viento (km/h) Dirección del viento Racha (km/h) Dirección de racha Precipitación (mm) Presión (hPa) Tendencia (hPa) Humedad (%)
2020-07-11 23:00:00 24.4 17 Sur -- -- 0 934.1 1.5 62
2020-07-11 22:00:00 26 -- -- -- -- 0 933.7 1.2 55
2020-07-11 21:00:00 27.8 -- -- -- -- 0 933 0.2 48
2020-07-11 20:00:00 30.2 -- -- -- -- 0 932.6 -0.4 39
2020-07-11 19:00:00 31.6 -- -- -- -- 0 932.5 -0.9 34
2020-07-11 18:00:00 32.2 -- -- -- -- 0 932.8 -1 30
2020-07-11 17:00:00 32.6 -- -- -- -- 0 933 -1.3 30
2020-07-11 16:00:00 32.2 24 Sur -- -- 0 933.4 -1.2 31
2020-07-11 15:00:00 31.8 -- -- -- -- 0 933.8 -1 32
2020-07-11 14:00:00 30.7 -- -- -- -- 0 934.3 -0.4 33
2020-07-11 13:00:00 29.8 -- -- -- -- 0 934.6 -0.1 31
2020-07-11 12:00:00 28.2 19 Sudoeste -- -- 0 934.8 0.3 35
2020-07-11 11:00:00 26.4 17 Sur -- -- 0 934.7 0.8 43
2020-07-11 10:00:00 24.4 18 Sur -- -- 0 934.7 1.2 49
2020-07-11 09:00:00 22.1 12 Sudoeste 23 Sudoeste 0 934.5 1.3 54
2020-07-11 08:00:00 20.1 9 Sur 15 Sur 0 933.9 0.7 59
2020-07-11 07:00:00 17.4 9 Sudeste 12 Sudeste 0 933.5 0.2 71
2020-07-11 06:00:00 18 8 Sur 15 Sudeste 0 933.2 0 68
2020-07-11 05:00:00 18.9 11 Sur 21 Sur 0 933.2 0 66
2020-07-11 04:00:00 19.9 13 Sur 22 Sur 0 933.3 0.2 60
2020-07-11 03:00:00 20.7 15 Sur 21 Sur 0 933.2 0.4 57
2020-07-11 02:00:00 21.6 13 Sur 29 Sur 0 933.2 0.5 53
2020-07-11 01:00:00 22.5 15 Sur 33 Sur 0 933.1 -- 49
2020-07-11 00:00:00 23.6 17 Sur 33 Sur 0 932.8 -- 46
2020-07-10 23:00:00 24.9 17 Sur 30 Sur 0 932.7 -- 44
2020-07-10 22:00:00 26.6 12 Sur 26 Sudoeste 0 931.8 -- 43
2020-07-10 21:00:00 29.8 14 Sudoeste 24 Sudoeste 0 931.3 -- 33
2020-07-10 20:00:00 31.9 9 Sudoeste 19 Oeste 0 930.9 -- 24
2020-07-10 19:00:00 32.7 10 Sudoeste 17 Sudoeste 0 930.9 -- 24
2020-07-10 18:00:00 31.9 10 Sudoeste 22 Oeste 0 931.1 -- 25
2020-07-10 17:00:00 32.4 9 Sudoeste 20 Sudeste 0 931.2 -- 23
2020-07-10 16:00:00 31.7 8 Sur 23 Sur 0 931.4 -- 23
2020-07-10 15:00:00 30.5 13 Sur 23 Sudoeste 0 932.1 -- 30
2020-07-10 14:00:00 28.9 8 Sudoeste 22 Sur 0 932.6 -0.8 36
2020-07-10 13:00:00 27.2 10 Sur 24 Sudoeste 0 933.1 -- 41
2020-07-10 12:00:00 26.1 13 Sur 24 Sudoeste 0 933.2 -- 46
2020-07-10 11:00:00 24.2 14 Sudoeste 28 Sudoeste 0 933.4 -0.1 52
2020-07-10 10:00:00 22.7 13 Sur 21 Sur 0 933.3 -- 56
2020-07-10 09:00:00 21.1 10 Sur 19 Sudoeste 0 933.4 -- 63
2020-07-10 08:00:00 18.1 5 Sudeste 12 Sudeste 0 933.5 -- 75
2020-07-10 07:00:00 15.3 8 Sudeste 12 Sudeste 0 933 -- 85
2020-07-10 06:00:00 15.2 9 Este 13 Sudeste 0 932.8 -- 85
2020-07-10 05:00:00 15.6 7 Sudeste 13 Sur 0 932.9 -- 81
2020-07-10 04:00:00 15.9 9 Sudeste 15 Sudoeste 0 933.3 -- 80
2020-07-10 03:00:00 16.9 9 Sudoeste 21 Sudoeste 0 933.3 -- 74
2020-07-10 02:00:00 15.8 6 Sudeste 12 Sudeste 0 933.8 -- 83
2020-07-10 01:00:00 16.4 8 Sur 15 Sur 0 934.2 -- 79
2020-07-10 00:00:00 16.9 5 Sudeste 24 Este 0 934.6 -- 77
2020-07-09 23:00:00 17.4 11 Este 23 Este 0 934.4 -- 73
2020-07-09 22:00:00 17.6 13 Este -- -- 0 933.1 -- 74
2020-07-09 21:00:00 18.7 -- -- -- -- 0 933.5 -- 71
2020-07-09 20:00:00 19.3 -- -- -- -- 0 932.9 -- 70
2020-07-09 19:00:00 18.3 -- -- -- -- 0.8 932.4 -- 74
2020-07-09 18:00:00 24.3 12 Este 30 Sur 0 933.4 -- 52
2020-07-09 17:00:00 29.1 7 Sur 24 Sur 0 932.2 -- 36
2020-07-09 16:00:00 31.2 9 Sur 31 Sur 0 932.7 -- 29
2020-07-09 15:00:00 30.6 13 Sur 33 Sudeste 0 933.6 -- 29
2020-07-09 14:00:00 29.7 4 Sur 14 Sur 0 934 -- 31
2020-07-09 13:00:00 28.3 5 Sur 12 Oeste 0 934.6 -- 33
2020-07-09 12:00:00 25.8 6 Sudoeste 11 Sudeste 0 934.7 -- 42
2020-07-09 11:00:00 25.5 5 Sudeste 12 Oeste 0 934.9 -- 47
2020-07-09 10:00:00 24.3 6 Sudoeste 16 Sudoeste 0 934.9 -- 53
2020-07-09 09:00:00 21.6 6 Sur 12 Sudoeste 0 934.6 -- 70
2020-07-09 08:00:00 19.3 5 Sudeste 12 Sudeste 0 934.3 -- 81
2020-07-09 07:00:00 18.1 8 Sudeste 15 Sur 0 934 -- 86
2020-07-09 06:00:00 18.8 8 Sur 15 Sudoeste 0 933.8 -- 84
2020-07-09 05:00:00 18.9 6 Sudeste 17 Sur 0 933.6 -- 85
2020-07-09 04:00:00 20.1 10 Sur 24 Sur 0 933.4 -- 79
2020-07-09 03:00:00 20.6 12 Sudoeste 24 Sur 0 933.6 -- 78
2020-07-09 02:00:00 21.2 14 Sur 25 Sur 0 934.1 -- 75
2020-07-09 01:00:00 21.5 6 Sudoeste -- -- 0 934.6 -- 74
2020-07-09 00:00:00 22.2 15 Sur -- -- 0 933.2 -- 63
2020-07-08 23:00:00 21.4 8 Sudeste -- -- 0 933.2 -- 67
2020-07-08 22:00:00 21.8 17 Sudoeste 31 Sudoeste 0.4 932.8 -- 63
2020-07-08 21:00:00 23 15 Sur -- -- 0.2 931.9 -- 57
2020-07-08 20:00:00 23.2 23 Sur -- -- 0.8 931.8 -- 58
2020-07-08 19:00:00 24.7 31 Sur -- -- 0 931.6 -- 54
2020-07-08 18:00:00 24.5 24 Sur 48 Sur 0.2 933.3 -- 63
2020-07-08 17:00:00 24.1 21 Sudeste -- -- 2.2 932.4 -- 71
2020-07-08 16:00:00 25.1 6 Sur -- -- 4.4 934.6 -- 72
2020-07-08 15:00:00 31.2 -- -- -- -- 0 931.7 -- 30
2020-07-08 14:00:00 30.1 -- -- -- -- 0 933 -- 38
2020-07-08 13:00:00 29.2 24 Sur -- -- 0 933.2 -- 39
2020-07-08 12:00:00 28 -- -- -- -- 0 933.6 -- 43
2020-07-08 11:00:00 26.6 -- -- -- -- 0 934 -- 46
2020-07-08 10:00:00 23.6 15 Sur -- -- 0 934.3 -- 52
2020-07-08 09:00:00 22.5 -- -- -- -- 0 933 -- 54
2020-07-08 08:00:00 21.2 -- -- -- -- 0 933.2 -- 55
2020-07-08 07:00:00 20.7 11 Sur 26 Sur 0 933.7 -- 57
2020-07-08 06:00:00 20.6 12 Sur 21 Sur 0 933.1 -- 57
2020-07-08 05:00:00 20.7 10 Sur 19 Sur 0 932.6 -- 56
2020-07-08 04:00:00 21.3 8 Sur 24 Sur 0 932.8 -- 54
2020-07-08 03:00:00 22.1 10 Sur 20 Sur 0 933 -- 52
2020-07-08 02:00:00 22.6 13 Sur 21 Sudeste 0 933.4 -- 54
2020-07-08 01:00:00 23.4 13 Sur 22 Sur 0 933.5 -- 52
2020-07-08 00:00:00 24.9 12 Sur 31 Sur 0 933.2 -- 56
2020-07-07 23:00:00 28.6 -- -- -- -- 0 932.6 -- 35
2020-07-07 22:00:00 32.3 3 Oeste 6 Oeste 0 931.7 -- 22
2020-07-07 21:00:00 35.5 0 Calma 15 Noroeste 0 931.4 -- 19
2020-07-07 20:00:00 37.3 7 Norte 24 Norte 0 931.3 -0.8 15
2020-07-07 19:00:00 37.5 12 Norte -- -- 0 931.4 -1 14
2020-07-07 18:00:00 37.8 16 Norte -- -- 0 931.7 -1 13
2020-07-07 17:00:00 37.5 18 Norte -- -- 0 932.1 -1 12
2020-07-07 16:00:00 37.6 19 Norte 33 Noroeste 0 932.4 -1.2 15
2020-07-07 15:00:00 36.5 13 Nordeste 30 Noroeste 0 932.7 -1.3 18
2020-07-07 14:00:00 35.6 9 Oeste 19 Oeste 0 933.1 -0.8 22
2020-07-07 13:00:00 33.8 5 Sudoeste 16 Sur 0 933.6 -0.5 23
2020-07-07 12:00:00 32.1 5 Noroeste 14 Sudoeste 0 934 0 24
2020-07-07 11:00:00 29.7 8 Sudoeste 15 Oeste 0 933.9 0.4 27
2020-07-07 10:00:00 27.1 9 Sudoeste 19 Sudoeste 0 934.1 0.8 32
2020-07-07 09:00:00 25.2 12 Sur 20 Sudoeste 0 934 0.7 36
2020-07-07 08:00:00 22.4 12 Sudeste 17 Sudeste 0 933.5 0.3 46
2020-07-07 07:00:00 20.1 9 Sudeste 17 Sudeste 0 933.3 -- 51
2020-07-07 06:00:00 19.6 5 Sudeste 11 Sudeste 0 933.3 -- 51
2020-07-07 05:00:00 21 7 Sudeste 12 Sur 0 933.2 -- 48
2020-07-07 04:00:00 21.9 9 Sur 16 Sudeste 0 933.3 -- 45
2020-07-07 03:00:00 23.3 13 Sur 21 Sur 0 933.6 -- 42
2020-07-07 02:00:00 24.4 13 Sur 31 Sur 0 933.5 -- 40
2020-07-07 01:00:00 25.4 18 Sur 41 Sur 0 933.4 -- 38
2020-07-07 00:00:00 26.5 19 Sur 35 Sur 0 933.3 -- 36
2020-07-06 23:00:00 27.4 0 Calma 13 Nordeste 0 932.9 -- 26
2020-07-06 22:00:00 30.1 12 Nordeste 15 Norte 0 932.5 -- 20
2020-07-06 21:00:00 33.6 12 Norte -- -- -- 932.3 -- 17
2020-07-06 20:00:00 35.8 13 Nordeste 31 Nordeste 0 932.3 -- 15
2020-07-06 19:00:00 36.5 17 Nordeste 36 Norte 0 932.4 -- 15
2020-07-06 18:00:00 36.8 14 Norte 38 Norte 0 932.6 -- 14
2020-07-06 17:00:00 36.7 18 Norte 35 Norte 0 932.8 -- 16
2020-07-06 16:00:00 36.9 11 Noroeste 30 Norte 0 933.2 -- 15
2020-07-06 15:00:00 35.8 9 Sudoeste 29 Nordeste 0 933.6 -- 17
2020-07-06 14:00:00 35.7 8 Oeste 21 Noroeste 0 934.1 -- 19
2020-07-06 13:00:00 33.3 4 Sur 15 Oeste 0 934.7 -- 22
2020-07-06 12:00:00 31.8 5 Sudoeste 12 Oeste 0 935 -- 25
2020-07-06 11:00:00 29.6 4 Sudoeste 11 Sur 0 935.1 -- 29
2020-07-06 10:00:00 26.9 5 Sur 12 Sudeste 0 935.3 -- 37
2020-07-06 09:00:00 24 8 Sur 16 Sur 0 935.2 -- 45
2020-07-06 08:00:00 20.5 8 Sudeste 12 Sudeste 0 935 -- 50
2020-07-06 07:00:00 18 6 Este 17 Sur 0 935.1 -- 53
2020-07-06 06:00:00 17.7 6 Sudeste 19 Norte 0 934.8 -- 55
2020-07-06 05:00:00 19.5 8 Sudeste 15 Sur 0 934.8 -- 50
2020-07-06 04:00:00 19.7 8 Sudeste 17 Sudeste 0 935.3 -- 48
2020-07-06 03:00:00 20.3 9 Sur 18 Sur 0 935.5 -- 46
2020-07-06 02:00:00 22.3 11 Sudeste 25 Sur 0 935.7 -- 42
2020-07-06 01:00:00 24.4 14 Sur 27 Sur 0 935.3 -- 51
2020-07-06 00:00:00 25.5 13 Sur 24 Sur 0 935.2 -- 47
2020-07-05 23:00:00 25.7 8 Este 14 Este 0 934.7 -- 27
2020-07-05 22:00:00 29.3 9 Este 17 Nordeste 0 934.3 -- 22
2020-07-05 21:00:00 33.1 12 Norte 21 Norte 0 934.1 -- 18
2020-07-05 20:00:00 35.2 12 Norte 26 Oeste 0 934.1 -- 15
2020-07-05 19:00:00 36.1 9 Noroeste 27 Nordeste 0 934.2 -- 14
2020-07-05 18:00:00 35.5 5 Sur 34 Noroeste 0 934.5 -- 14
2020-07-05 17:00:00 35.5 12 Norte 23 Norte 0 935.1 -- 14
2020-07-05 16:00:00 35.2 9 Sudeste 29 Este 0 935.5 -- 16
2020-07-05 15:00:00 34.5 6 Oeste 17 Sudeste 0 936.2 -- 17
2020-07-05 14:00:00 33.1 6 Sur 19 Sur 0 936.9 -- 21
2020-07-05 13:00:00 31 8 Sudoeste 21 Sudoeste 0 937.6 -- 33
2020-07-05 12:00:00 29.1 12 Sudoeste 23 Sudoeste 0 937.9 -- 43
2020-07-05 11:00:00 26.4 13 Sudoeste 26 Sudoeste 0 938 -- 53
2020-07-05 10:00:00 24.4 13 Sur 24 Sudoeste 0 938.4 -- 63
2020-07-05 09:00:00 22 13 Sudoeste 27 Sudoeste 0 938.5 -- 72
2020-07-05 08:00:00 20.4 10 Sur 18 Sur 0 938.3 -- 79
2020-07-05 07:00:00 18.4 8 Sur 14 Sur 0 938.1 -- 88
2020-07-05 06:00:00 18.6 11 Sur 16 Sur 0 938 -- 87
2020-07-05 05:00:00 19.2 10 Sur 19 Sur 0 938 -- 84
2020-07-05 04:00:00 19.9 13 Sur 23 Sur 0 938.1 -- 81
2020-07-05 03:00:00 20.4 14 Sur 26 Sur 0 938.5 -- 80
2020-07-05 02:00:00 21.1 15 Sur 31 Sur 0 938.6 -- 77
2020-07-05 01:00:00 21.7 14 Sur 31 Sur 0 938.2 -- 77
2020-07-05 00:00:00 23.4 20 Sur 38 Sur 0 938 -- 69
2020-07-04 23:00:00 24.7 12 Sur 21 Sur 0 937.5 -- 44
2020-07-04 22:00:00 26.8 9 Este 13 Nordeste 0 936.4 -- 24
2020-07-04 21:00:00 32.5 8 Este 17 Norte 0 935.9 -- 19
2020-07-04 20:00:00 34.1 11 Norte 23 Norte 0 935.8 -- 15
2020-07-04 19:00:00 34.7 11 Norte 27 Norte 0 935.6 -- 15
2020-07-04 18:00:00 35.1 12 Norte 24 Norte 0 936 -- 15
2020-07-04 17:00:00 34.4 12 Noroeste 25 Oeste 0 936.3 -- 17
2020-07-04 16:00:00 33.8 8 Norte 23 Nordeste 0 936.7 -- 17
2020-07-04 15:00:00 33.1 10 Este 24 Sudoeste 0 937.3 -- 19
2020-07-04 14:00:00 32.1 8 Noroeste 23 Norte 0 938 -- 23
2020-07-04 13:00:00 30.6 7 Noroeste 20 Oeste 0 938.4 -- 30
2020-07-04 12:00:00 28.4 7 Sur 16 Sur 0 938.6 -- 41
2020-07-04 11:00:00 26.2 9 Sur 18 Sudoeste 0 938.5 -- 48
2020-07-04 10:00:00 24.2 10 Sur 22 Sur 0 938.6 -- 59
2020-07-04 09:00:00 22.5 11 Sur 19 Sudoeste 0 938.3 -- 70
2020-07-04 08:00:00 20.1 9 Sudeste 14 Sudeste 0 938 -- 83
2020-07-04 07:00:00 18.3 8 Sudeste 14 Sur 0 937.9 -- 90
2020-07-04 06:00:00 18.9 11 Sur 19 Sur 0 937.6 -- 88
2020-07-04 05:00:00 19.3 11 Sur 21 Sur 0 937.3 -- 87
2020-07-04 04:00:00 19.8 13 Sur 22 Sur 0 937.3 -- 85
2020-07-04 03:00:00 19.8 11 Sur 30 Sur 0 937.2 -- 85
2020-07-04 02:00:00 20.4 14 Sur 31 Sudoeste 0 937 -- 81
2020-07-04 01:00:00 22 17 Sudoeste 31 Sudoeste 0 936.8 -- 74
2020-07-04 00:00:00 22.8 16 Sur 33 Sudoeste 0 936.6 -- 71
2020-07-03 23:00:00 23.3 10 Este 23 Sur 0 936.1 -- 27
2020-07-03 22:00:00 26.1 13 Nordeste 15 Nordeste 0 935.1 -- 20
2020-07-03 21:00:00 29.8 14 Nordeste 22 Nordeste 0 934.9 -- 17
2020-07-03 20:00:00 31.5 13 Norte 29 Norte 0 934.5 -- 15
2020-07-03 19:00:00 32 14 Norte 29 Norte 0 934.1 -- 16
2020-07-03 18:00:00 32.2 12 Norte 28 Norte 0 934.3 -- 16
2020-07-03 17:00:00 31.8 10 Nordeste 29 Norte 0 934.6 -- 18
2020-07-03 16:00:00 32.1 12 Noroeste 28 Norte 0 934.8 -- 17
2020-07-03 15:00:00 31.4 14 Norte 27 Norte 0 935.1 -- 21
2020-07-03 14:00:00 29.5 8 Este 31 Norte 0 935.5 -- 24
2020-07-03 13:00:00 29.3 12 Noroeste 24 Noroeste 0 935.8 -- 26
2020-07-03 12:00:00 28.2 6 Oeste 22 Oeste 0 935.7 -- 39
2020-07-03 11:00:00 25.8 9 Sudoeste 21 Sur 0 935.6 -- 49
2020-07-03 10:00:00 23.5 10 Sudoeste 23 Sudoeste 0 935.6 -- 58
2020-07-03 09:00:00 21.4 8 Sudoeste 15 Sudoeste 0 935.5 -- 71
2020-07-03 08:00:00 18.4 4 Sur 9 Sur 0 935.1 -- 64
2020-07-03 07:00:00 14.8 3 Sur 6 Sur 0 934.6 -- 60
2020-07-03 06:00:00 15.8 3 Sur 11 Sur 0 934.3 -- 50
2020-07-03 05:00:00 15.6 7 Sur 17 Sur 0 934.2 -- 50
2020-07-03 04:00:00 17 3 Sudeste 8 Norte 0 933.9 -- 45
2020-07-03 03:00:00 17.9 5 Norte 10 Este 0 933.8 -- 44
2020-07-03 02:00:00 19.5 7 Norte 10 Norte 0 933.7 -- 34
2020-07-03 01:00:00 20.6 9 Norte 13 Norte 0 933.8 -- 31
2020-07-03 00:00:00 22.3 10 Norte 18 Norte 0 933.6 -- 26
2020-07-02 23:00:00 22.6 13 Nordeste 19 Nordeste 0 933.1 -- 24
2020-07-02 22:00:00 25.3 9 Norte 22 Norte 0 932.3 -- 20
2020-07-02 21:00:00 29.6 15 Norte 37 Norte 0 932 -- 16
2020-07-02 20:00:00 31.6 25 Noroeste 45 Norte 0 931.7 -- 15
2020-07-02 19:00:00 32.8 28 Noroeste 53 Noroeste 0 931.5 -- 15
2020-07-02 18:00:00 33.2 26 Norte 49 Norte 0 931.5 -- 15
2020-07-02 17:00:00 33.2 21 Norte 49 Noroeste 0 931.5 -- 15
2020-07-02 16:00:00 33.5 26 Norte 54 Noroeste 0 932 -- 14
2020-07-02 15:00:00 33 27 Norte 48 Noroeste 0 932.3 -- 14
2020-07-02 14:00:00 32.6 29 Noroeste 49 Noroeste 0 932.9 -- 14
2020-07-02 13:00:00 31.6 23 Noroeste 42 Norte 0 933 -- 20
2020-07-02 12:00:00 30.2 22 Norte 34 Norte 0 933.1 -- 27
2020-07-02 11:00:00 28.8 16 Norte 26 Norte 0 933.1 -- 29
2020-07-02 10:00:00 26.7 15 Noroeste 26 Noroeste 0 933.1 -- 32
2020-07-02 09:00:00 23.2 17 Norte 24 Norte 0 932.8 -- 36
2020-07-02 08:00:00 19.8 0 Calma 6 Este 0 932.4 -- 40
2020-07-02 07:00:00 16.1 3 Este 8 Este 0 932.1 -- 48
2020-07-02 06:00:00 16.5 3 Este 5 Este 0 931.8 -- 46
2020-07-02 05:00:00 17.4 2 Este 4 Este 0 931.5 -- 43
2020-07-02 04:00:00 19.1 2 Sur 10 Norte 0 931.6 -- 40
2020-07-02 03:00:00 20.9 10 Norte 12 Norte 0 931.7 -- 33
2020-07-02 02:00:00 21.7 8 Norte 10 Norte 0 932 -- 31
2020-07-02 01:00:00 23.4 8 Noroeste 19 Oeste 0 932 -- 28
2020-07-02 00:00:00 24.7 -- -- -- -- 0 931.7 -- 25
2020-07-01 23:00:00 25.7 7 Nordeste -- -- 0 931.1 -- 23
2020-07-01 22:00:00 27.7 -- -- -- -- 0 930.8 -- 22
2020-07-01 21:00:00 32.2 19 Norte 35 Noroeste 0 930.2 -- 16
2020-07-01 20:00:00 34 20 Norte 42 Norte 0 930 -- 15
2020-07-01 19:00:00 34.8 23 Norte 46 Norte 0 929.8 -- 14
2020-07-01 18:00:00 34.9 28 Norte -- -- 0 930.3 -- 14
2020-07-01 17:00:00 35.5 -- -- -- -- 0 930.5 -- 15
2020-07-01 16:00:00 34.7 -- -- -- -- 0 930.9 -- 17
2020-07-01 15:00:00 34.2 -- -- -- -- 0 931.1 -- 18
2020-07-01 14:00:00 32.9 -- -- -- -- 0 931.3 -- 22
2020-07-01 13:00:00 32 22 Noroeste 38 Norte 0 931.6 -- 27
2020-07-01 12:00:00 30.3 17 Norte 29 Norte 0 932 -- 28
2020-07-01 11:00:00 28.7 16 Norte 28 Noroeste 0 931.9 -- 35
2020-07-01 10:00:00 27 16 Noroeste 26 Noroeste 0 932 -- 41
2020-07-01 09:00:00 23.9 13 Noroeste 20 Norte 0 932 -- 48
2020-07-01 08:00:00 19.9 0 Calma 6 Este 0 931.5 -- 61
2020-07-01 07:00:00 17.3 3 Nordeste 6 Norte 0 931.2 -- 71
2020-07-01 06:00:00 17.7 4 Este 11 Este 0 930.7 -- 71
2020-07-01 05:00:00 19.3 3 Sur 13 Sudoeste 0 930.2 -- 68
2020-07-01 04:00:00 20.3 5 Sudoeste 10 Sudoeste 0 930 -- 64
2020-07-01 03:00:00 21.5 4 Sudoeste 13 Sudoeste 0 930 -- 65
2020-07-01 02:00:00 22.2 7 Sur 14 Sudeste 0 930 -- 65
2020-07-01 01:00:00 24.2 8 Sudoeste 24 Sur 0 930.3 -- 52
2020-07-01 00:00:00 25.8 12 Sudoeste 25 Sudoeste 0 929.8 -- 34
2020-06-30 23:00:00 27.1 7 Sur 14 Sur 0 929.5 -- 31
2020-06-30 22:00:00 29.4 4 Oeste 24 Sur 0 928.5 -- 27
2020-06-30 21:00:00 31.7 12 Sur 33 Sudoeste 0 927.9 -- 24
2020-06-30 20:00:00 33.7 18 Sur 35 Sudoeste 0 927.8 -- 21
2020-06-30 19:00:00 35 16 Sur 32 Sur 0 927.9 -- 19
2020-06-30 18:00:00 35.6 17 Sur 32 Sudoeste 0 928.5 -- 18
2020-06-30 17:00:00 35.8 15 Sudoeste 30 Sudoeste 0 929.1 -- 17
2020-06-30 16:00:00 35.5 17 Sur 33 Sur 0 929.5 -- 17
2020-06-30 15:00:00 35.1 15 Sudoeste 39 Sur 0 930.2 -- 17
2020-06-30 14:00:00 34.2 17 Sudoeste 38 Sudoeste 0 930.6 -- 18
2020-06-30 13:00:00 32.9 17 Sudoeste 30 Sudoeste 0 931.2 -- 21
2020-06-30 12:00:00 30.5 15 Sur 29 Sudoeste 0 931.4 -- 31
2020-06-30 11:00:00 27.8 17 Sur 30 Sur 0 931.7 -- 39
2020-06-30 10:00:00 26 15 Sur 22 Sur 0 931.9 -- 43
2020-06-30 09:00:00 23.2 11 Sur 20 Sur 0 932 -- 53
2020-06-30 08:00:00 20.6 11 Sur 20 Sudoeste 0 931.9 -- 62
2020-06-30 07:00:00 20 8 Sur 24 Sur 0 931.6 -- 59
2020-06-30 06:00:00 20.7 14 Sur 26 Sur 0 931.1 -- 55
2020-06-30 05:00:00 20.9 12 Sur 28 Sudoeste 0 931 -- 58
2020-06-30 04:00:00 21.6 13 Sur 36 Sur 0 930.9 -- 55
2020-06-30 03:00:00 22.3 16 Sudoeste 39 Sudoeste 0 931.1 -- 54
2020-06-30 02:00:00 23.5 18 Sudoeste 49 Sudoeste 0 931.4 -- 49
2020-06-30 01:00:00 25.3 21 Sudoeste 43 Sudoeste 0 931.7 -- 38
2020-06-30 00:00:00 26.3 19 Sudoeste 34 Sudoeste 0 931.7 -- 38
2020-06-29 23:00:00 27.9 14 Sur 27 Sudoeste 0 931.5 -- 40
2020-06-29 22:00:00 30.2 7 Sudoeste 26 Sudoeste 0 931 -- 33
2020-06-29 21:00:00 33.4 14 Oeste 21 Oeste 0 930.7 -- 25
2020-06-29 20:00:00 36.2 8 Norte 23 Nordeste 0 930.5 -- 16
2020-06-29 19:00:00 36.3 13 Norte 29 Norte 0 930.6 -- 17
2020-06-29 18:00:00 36.9 12 Nordeste 31 Nordeste 0 931.1 -- 18
2020-06-29 17:00:00 36.3 9 Noroeste 27 Norte 0 931.7 -- 18
2020-06-29 16:00:00 35.7 16 Noroeste 33 Norte 0 932.4 -- 19
2020-06-29 15:00:00 34.6 13 Noroeste 31 Norte 0 932.8 -- 20
2020-06-29 14:00:00 34.6 6 Noroeste 25 Norte 0 933.5 -- 22
2020-06-29 13:00:00 33.7 8 Noroeste 18 Oeste 0 934 -- 23
2020-06-29 12:00:00 31.7 4 Oeste 11 Oeste 0 934.4 -- 30
2020-06-29 11:00:00 28.9 5 Oeste 11 Sudoeste 0 934.6 -- 36
2020-06-29 10:00:00 26.5 6 Sudoeste 14 Sudoeste 0 934.8 -- 41
2020-06-29 09:00:00 23.9 6 Sudoeste 14 Sudoeste 0 934.8 -- 50
2020-06-29 08:00:00 20.1 5 Sudeste 11 Este 0 934.6 -- 66
2020-06-29 07:00:00 17 5 Este 12 Este 0 934.2 -- 73
2020-06-29 06:00:00 17.6 5 Este 10 Sudeste 0 933.8 -- 69
2020-06-29 05:00:00 19.9 8 Sudeste 14 Sur 0 933.7 -- 64
2020-06-29 04:00:00 21.1 8 Sudeste 24 Sudoeste 0 933.7 -- 62
2020-06-29 03:00:00 22 11 Sur 20 Sur 0 933.7 -- 57
2020-06-29 02:00:00 22.6 12 Sur 17 Sur 0 934.1 -- 59
2020-06-29 01:00:00 24.1 9 Sur 15 Sudoeste 0 933.9 -- 52
2020-06-29 00:00:00 23.5 5 Sur 10 Sur 0 933.7 -- 40
2020-06-28 23:00:00 24.7 5 Sur 11 Sur 0 933.5 -- 34
2020-06-28 22:00:00 28.3 6 Sudeste 10 Nordeste 0 933 -- 28
2020-06-28 21:00:00 31.9 9 Nordeste 28 Norte 0 932.8 -- 20
2020-06-28 20:00:00 33.4 17 Norte 30 Norte 0 932.7 -- 19
2020-06-28 19:00:00 34.3 14 Norte 34 Norte 0 932.8 -- 20
2020-06-28 18:00:00 34.3 18 Norte 37 Norte 0 933 -- 20
2020-06-28 17:00:00 34.6 10 Noroeste 31 Noroeste 0 933.4 -- 21
2020-06-28 16:00:00 33.8 19 Noroeste 33 Norte 0 933.9 -1.4 22
2020-06-28 15:00:00 33.6 12 Noroeste 31 Noroeste 0 934.3 -- 22
2020-06-28 14:00:00 32.7 11 Oeste 24 Oeste 0 934.8 -- 25
2020-06-28 13:00:00 31.7 8 Noroeste 22 Noroeste 0 935.3 -- 26
2020-06-28 12:00:00 29.9 4 Oeste 14 Noroeste 0 935.7 -- 31
2020-06-28 11:00:00 27.9 5 Sudoeste 13 Oeste 0 935.8 -- 36
2020-06-28 10:00:00 25.4 5 Sur 13 Sur 0 935.6 -- 41
2020-06-28 09:00:00 22.6 6 Sudoeste 12 Sudoeste 0 935.4 -- 47
2020-06-28 08:00:00 19.1 4 Sudeste 12 Sudeste 0 935.2 -- 60
2020-06-28 07:00:00 15.6 7 Este 10 Este 0 934.9 -- 70
2020-06-28 06:00:00 15.6 5 Este 10 Este 0 934.6 -- 68
2020-06-28 05:00:00 16.8 5 Este 12 Este 0 934.4 -- 65
2020-06-28 04:00:00 17.6 7 Este 12 Sudeste 0 934.4 -- 62
2020-06-28 03:00:00 19.5 8 Sudeste 12 Sudeste 0 934.3 -- 59
2020-06-28 02:00:00 20.7 5 Sur 17 Sur 0 934.5 -- 57
2020-06-28 01:00:00 20.8 9 Este 13 Este 0 934.1 -- 43
2020-06-28 00:00:00 22.6 7 Este 15 Norte 0 933.7 -- 38
2020-06-27 23:00:00 24.4 7 Norte 12 Norte 0 933.5 -- 35
2020-06-27 22:00:00 26.9 3 Norte 6 Norte 0 932.7 -- 30
2020-06-27 21:00:00 30.2 5 Norte 18 Norte 0 932.5 -- 24
2020-06-27 20:00:00 31.6 13 Norte 25 Norte 0 932.5 -- 21
2020-06-27 19:00:00 32.1 8 Noroeste 27 Norte 0 932.4 -- 21
2020-06-27 18:00:00 31.9 10 Norte 30 Norte 0 932.7 -- 20
2020-06-27 17:00:00 31.5 10 Norte 35 Norte 0 932.9 -- 21
2020-06-27 16:00:00 31.1 15 Norte 33 Norte 0 933.2 -- 22
2020-06-27 15:00:00 30.1 17 Norte 33 Norte 0 933.4 -- 24
2020-06-27 14:00:00 28.9 16 Norte 31 Norte 0 933.8 -- 24
2020-06-27 13:00:00 27.6 17 Norte 32 Norte 0 934.2 -- 26
2020-06-27 12:00:00 26.2 14 Norte 27 Norte 0 934.5 -- 32
2020-06-27 11:00:00 24.7 14 Norte 24 Noroeste 0 934.6 -- 34
2020-06-27 10:00:00 21.3 11 Noroeste 17 Noroeste 0 934.6 -- 39
2020-06-27 09:00:00 18.5 12 Norte 19 Norte 0 934.3 -- 43
2020-06-27 08:00:00 15.4 8 Norte 13 Norte 0 934.1 -- 49
2020-06-27 07:00:00 14.4 12 Norte 15 Norte 0 933.5 -- 49
2020-06-27 06:00:00 14.2 3 Nordeste 8 Norte 0 933.5 -- 49
2020-06-27 05:00:00 15.7 7 Norte 12 Norte 0 933.3 -- 40
2020-06-27 04:00:00 15.8 9 Norte 12 Norte 0 933 -- 40
2020-06-27 03:00:00 16.8 10 Norte 11 Norte 0 933 -- 38
2020-06-27 02:00:00 18.8 7 Norte 12 Noroeste 0 933 -- 34
2020-06-27 01:00:00 20.3 8 Nordeste 14 Norte 0 932.7 -- 31
2020-06-27 00:00:00 21.1 8 Norte 14 Norte 0 932.4 -- 32
2020-06-26 23:00:00 23.5 11 Norte 18 Norte 0 931.9 -- 28
2020-06-26 22:00:00 25.5 14 Norte 25 Norte 0 930.7 -- 27
2020-06-26 21:00:00 28.1 16 Norte 38 Norte 0 930.2 -- 27
2020-06-26 20:00:00 30.8 23 Norte 40 Norte 0 929.6 -- 25
2020-06-26 19:00:00 31.9 24 Norte -- -- 0 929.4 -- 22
2020-06-26 18:00:00 32.7 22 Noroeste -- -- 0 929.6 -- 21
2020-06-26 17:00:00 33.4 16 Noroeste 38 Noroeste 0 930 -- 23
2020-06-26 16:00:00 30.5 9 Sudoeste 23 Norte 0 930.8 -- 30
2020-06-26 15:00:00 31.4 9 Noroeste -- -- 0 931 -- 29
2020-06-26 14:00:00 30.9 9 Norte 28 Oeste 0 931.5 -- 31
2020-06-26 13:00:00 29.6 7 Noroeste 21 Oeste 0 932.2 -- 34
2020-06-26 12:00:00 27.8 9 Sudoeste 20 Oeste 0 932.6 -- 37
2020-06-26 11:00:00 26.5 7 Oeste 17 Oeste 0 932.8 -- 40
2020-06-26 10:00:00 24.3 9 Sudoeste 21 Oeste 0 933 -- 46
2020-06-26 09:00:00 22.1 11 Sudoeste 19 Sudoeste 0 932.8 -- 51
2020-06-26 08:00:00 19.6 7 Sudoeste 14 Sudoeste 0 932.8 -- 58
2020-06-26 07:00:00 18.2 5 Sudoeste 19 Sudoeste 0 932.4 -- 58
2020-06-26 06:00:00 18.9 9 Sudoeste 23 Sur 0 932.3 -- 55
2020-06-26 05:00:00 19.7 10 Sudoeste -- -- 0 932.2 -- 51
2020-06-26 04:00:00 20.1 16 Sudoeste 31 Sur 0 932.2 -- 49
2020-06-26 03:00:00 20.4 11 Sudoeste 36 Sudoeste 0 932.3 -- 46
2020-06-26 02:00:00 21 16 Sudoeste 41 Sudoeste 0 932.5 -- 44
2020-06-26 01:00:00 21.9 22 Sudoeste 42 Sudoeste 0 932.6 -- 45
2020-06-26 00:00:00 23.6 24 Sudoeste 49 Sudoeste 0 932.2 -- 39
2020-06-25 23:00:00 25.6 24 Sudoeste 54 Sudoeste 0 931.8 -- 29
2020-06-25 22:00:00 27.1 19 Sudoeste 35 Sur 0 930.9 -- 23
2020-06-25 21:00:00 29.4 18 Sudoeste 38 Sudoeste 0 930.5 -- 20
2020-06-25 20:00:00 31.4 22 Sudoeste 40 Sudoeste 0 930.1 -- 20
2020-06-25 19:00:00 32.3 20 Sudoeste 41 Sudoeste 0 929.9 -- 19
2020-06-25 18:00:00 33.3 21 Sudoeste 45 Sur 0 930.2 -- 18
2020-06-25 17:00:00 33.6 19 Sur 40 Sudoeste 0 930.9 -- 16
2020-06-25 16:00:00 33.8 19 Sudoeste 41 Sudoeste 0 931.3 -- 16
2020-06-25 15:00:00 33 19 Sudoeste 40 Sudoeste 0 931.9 -- 18
2020-06-25 14:00:00 32.1 17 Sudoeste 39 Sudoeste 0 932.5 -- 22
2020-06-25 13:00:00 30.8 19 Sudoeste 37 Sudoeste 0 933.1 -- 24
2020-06-25 12:00:00 29.1 14 Sudoeste 29 Sur 0 933.5 -- 26
2020-06-25 11:00:00 27.2 17 Sudoeste 30 Sudoeste 0 933.5 -- 29
2020-06-25 10:00:00 24.9 15 Sudoeste 30 Sudoeste 0 933.5 -- 38
2020-06-25 09:00:00 22.2 14 Sudoeste 25 Sudoeste 0 933.5 -- 51
2020-06-25 08:00:00 19.2 10 Sur 18 Sur 0 933.5 -- 58
2020-06-25 07:00:00 16.8 8 Sur 22 Sur 0 933.7 -- 67
2020-06-25 06:00:00 17 14 Sur 20 Sur 0 933.7 -- 71
2020-06-25 05:00:00 17.9 11 Sur 29 Sur 0 933.9 -- 74
2020-06-25 04:00:00 19.2 18 Sur 34 Sur 0 933.6 -- 67
2020-06-25 03:00:00 19.2 20 Sur 31 Sur 0 933.8 -- 68
2020-06-25 02:00:00 21 16 Sur 35 Sur 0 933.9 -- 63
2020-06-25 01:00:00 22.2 15 Sur 32 Sur 0 934.4 -- 57
2020-06-25 00:00:00 23.1 14 Sur 28 Sudoeste 0 934.1 -- 55
2020-06-24 23:00:00 24.2 10 Sur 21 Sudoeste 0 934 -- 50
2020-06-24 22:00:00 26 7 Sur 21 Sur 0 933.1 -- 37
2020-06-24 21:00:00 28.3 11 Sur 25 Sur 0 933 -- 30
2020-06-24 20:00:00 30.2 18 Sur 29 Sur 0 932.9 -- 24
2020-06-24 19:00:00 30.4 14 Sur 26 Sur 0 932.9 -- 29
2020-06-24 18:00:00 31.7 20 Sur 33 Sur 0 932.8 -- 27
2020-06-24 17:00:00 30.8 19 Sur 40 Sur 0 933.2 -- 27
2020-06-24 16:00:00 28.7 24 Sudeste 44 Sudeste 0 932.9 -- 31
2020-06-24 15:00:00 28.6 5 Este 21 Sudeste 0 934.6 -- 32
2020-06-24 14:00:00 28.5 8 Este 19 Este 0 934.7 -- 33
2020-06-24 13:00:00 27.7 6 Sur 17 Sudoeste 0 934.9 -- 36
2020-06-24 12:00:00 26.3 9 Sur 18 Sur 0 934.6 -- 38
2020-06-24 11:00:00 24.7 12 Sudoeste 24 Sudoeste 0 934 -- 43
2020-06-24 10:00:00 23.3 17 Sudoeste 31 Sudoeste 0 934 -- 44
2020-06-24 09:00:00 21.9 17 Sudoeste 35 Oeste 0 933.8 -- 48
2020-06-24 08:00:00 20.9 10 Sudoeste 18 Oeste 0 933.6 -- 50
2020-06-24 07:00:00 17.7 9 Sur 30 Sudeste 0 933.7 -- 64
2020-06-24 06:00:00 18.4 21 Sudeste 31 Sudeste 0 934.3 -- 61
2020-06-24 05:00:00 19.1 16 Sudeste 24 Sur 0 934.2 -- 59
2020-06-24 04:00:00 19.7 15 Sur 32 Sur 0 934 -- 58
2020-06-24 03:00:00 20.6 14 Sur 38 Sur 0 934 -- 57
2020-06-24 02:00:00 20.5 15 Sur 35 Sur 0 934 -- 60
2020-06-24 01:00:00 22.1 20 Sudoeste 41 Sudoeste 0 934.1 -- 57
2020-06-24 00:00:00 23.8 21 Sudoeste 38 Sudoeste 0 933.8 -- 45
2020-06-23 23:00:00 24.8 17 Sudoeste 30 Sur 0 933.9 -- 44
2020-06-23 22:00:00 26.7 15 Sudoeste 30 Sudoeste 0 933 -- 37
2020-06-23 21:00:00 29.6 15 Sudoeste 32 Sudoeste 0 932.4 -- 30
2020-06-23 20:00:00 31.8 17 Sudoeste 33 Sudoeste 0 932.1 -- 23
2020-06-23 19:00:00 33.3 15 Sudoeste 27 Sudoeste 0 932 -- 20
2020-06-23 18:00:00 33.8 14 Sudoeste 31 Sur 0 932.1 -- 18
2020-06-23 17:00:00 34.1 19 Sur 33 Sur 0 932.4 -- 19
2020-06-23 16:00:00 33.6 19 Sur 33 Sudoeste 0 933 -- 21
2020-06-23 15:00:00 32.7 17 Sur 32 Sur 0 933.5 -- 21
2020-06-23 14:00:00 31.1 15 Sudoeste 36 Sur 0 934.1 -- 24
2020-06-23 13:00:00 29.8 19 Sur 41 Sudoeste 0 934.8 -- 28
2020-06-23 12:00:00 27.6 21 Sudoeste 41 Sudoeste 0 935.1 -- 34
2020-06-23 11:00:00 25.6 19 Sudoeste 41 Sudoeste 0 935.3 -- 40
2020-06-23 10:00:00 22.9 23 Sudoeste 42 Sur 0 935.6 -- 44
2020-06-23 09:00:00 21.1 23 Sudoeste 40 Sur 0 935.7 -- 49
2020-06-23 08:00:00 19.6 21 Sudoeste 38 Sudoeste 0 935.4 -- 53
2020-06-23 07:00:00 18.3 13 Sur 27 Sur 0 935.3 -- 58
2020-06-23 06:00:00 18.7 16 Sur 30 Sur 0 935.2 -- 56
2020-06-23 05:00:00 18.4 13 Sur 26 Sur 0 935.3 -- 61
2020-06-23 04:00:00 19 16 Sur 29 Sur 0 935.7 -- 60
2020-06-23 03:00:00 19.5 17 Sur 33 Sur 0 935.8 -- 59
2020-06-23 02:00:00 20.6 16 Sudeste 48 Sur 0 935.9 -- 58
2020-06-23 01:00:00 21.3 21 Sur 40 Sur 0 935.5 -- 52
2020-06-23 00:00:00 22.2 19 Sudoeste 33 Sudoeste 0 935.6 -- 48
2020-06-22 23:00:00 23.5 15 Sudoeste 29 Sudoeste 0 935.4 -- 44
2020-06-22 22:00:00 25.9 14 Sudoeste 32 Sudoeste 0 934.9 -- 38
2020-06-22 21:00:00 29 21 Sudoeste 34 Oeste 0 934.4 -- 32
2020-06-22 20:00:00 32.1 14 Sudoeste 26 Sudoeste 0 934 -- 21
2020-06-22 19:00:00 33.4 8 Sudoeste 25 Sur 0 934.2 -- 18
2020-06-22 18:00:00 34 10 Sur 35 Sudeste 0 934.6 -- 18
2020-06-22 17:00:00 34.2 11 Este 26 Sur 0 935.3 -- 17
2020-06-22 16:00:00 33.4 13 Sur 29 Sudoeste 0 936.2 -- 18
2020-06-22 15:00:00 33.1 15 Sudoeste 30 Sur 0 937 -- 19
2020-06-22 14:00:00 32.2 15 Sur -- -- -- 937.6 -- 24
2020-06-22 13:00:00 -- -- -- -- -- -- -- -- --
2020-06-22 12:00:00 -- -- -- -- -- -- -- -- --
2020-06-22 11:00:00 -- -- -- -- -- -- -- -- --
2020-06-22 10:00:00 -- -- -- -- -- -- -- -- --
2020-06-22 09:00:00 -- -- -- -- -- -- -- -- --
2020-06-22 08:00:00 -- -- -- -- -- -- -- -- --
2020-06-22 07:00:00 -- -- -- -- -- -- -- -- --
2020-06-22 06:00:00 -- -- -- -- -- -- -- -- --
2020-06-22 05:00:00 -- -- -- -- -- -- -- -- --
2020-06-22 04:00:00 -- -- -- -- -- -- -- -- --
2020-06-22 03:00:00 -- -- -- -- -- -- -- -- --
2020-06-22 02:00:00 -- -- -- -- -- -- -- -- --
2020-06-22 01:00:00 -- -- -- -- -- -- -- -- --
2020-06-22 00:00:00 -- -- -- -- -- -- -- -- --
2020-06-21 23:00:00 -- -- -- -- -- -- -- -- --
2020-06-21 22:00:00 -- -- -- -- -- -- -- -- --
2020-06-21 21:00:00 -- -- -- -- -- -- -- -- --
2020-06-21 20:00:00 -- -- -- -- -- -- -- -- --
2020-06-21 19:00:00 -- -- -- -- -- -- -- -- --
2020-06-21 18:00:00 -- -- -- -- -- -- -- -- --
2020-06-21 17:00:00 -- -- -- -- -- -- -- -- --
2020-06-21 16:00:00 -- -- -- -- -- -- -- -- --
2020-06-21 15:00:00 -- -- -- -- -- -- -- -- --
2020-06-21 14:00:00 -- -- -- -- -- -- -- -- --
2020-06-21 13:00:00 -- -- -- -- -- -- -- -- --
2020-06-21 12:00:00 -- -- -- -- -- -- -- -- --
2020-06-21 11:00:00 -- -- -- -- -- -- -- -- --
2020-06-21 10:00:00 -- -- -- -- -- -- -- -- --
2020-06-21 09:00:00 -- -- -- -- -- -- -- -- --
2020-06-21 08:00:00 -- -- -- -- -- -- -- -- --
2020-06-21 07:00:00 -- -- -- -- -- -- -- -- --
2020-06-21 06:00:00 -- -- -- -- -- -- -- -- --
2020-06-21 05:00:00 -- -- -- -- -- -- -- -- --
2020-06-21 04:00:00 -- -- -- -- -- -- -- -- --
2020-06-21 03:00:00 -- -- -- -- -- -- -- -- --
2020-06-21 02:00:00 -- -- -- -- -- -- -- -- --
2020-06-21 01:00:00 -- -- -- -- -- -- -- -- --
2020-06-21 00:00:00 -- -- -- -- -- -- -- -- --
2020-06-20 23:00:00 -- -- -- -- -- -- -- -- --
2020-06-20 22:00:00 -- -- -- -- -- -- -- -- --
2020-06-20 21:00:00 -- -- -- -- -- -- -- -- --
2020-06-20 20:00:00 -- -- -- -- -- -- -- -- --
2020-06-20 19:00:00 -- -- -- -- -- -- -- -- --
2020-06-20 18:00:00 -- -- -- -- -- -- -- -- --
2020-06-20 17:00:00 -- -- -- -- -- -- -- -- --
2020-06-20 16:00:00 -- -- -- -- -- -- -- -- --
2020-06-20 15:00:00 -- -- -- -- -- -- -- -- --
2020-06-20 14:00:00 -- -- -- -- -- -- -- -- --
2020-06-20 13:00:00 -- -- -- -- -- -- -- -- --
2020-06-20 12:00:00 -- -- -- -- -- -- -- -- --
2020-06-20 11:00:00 -- -- -- -- -- -- -- -- --
2020-06-20 10:00:00 -- -- -- -- -- -- -- -- --
2020-06-20 09:00:00 -- -- -- -- -- -- -- -- --
2020-06-20 08:00:00 -- -- -- -- -- -- -- -- --
2020-06-20 07:00:00 -- -- -- -- -- -- -- -- --
2020-06-20 06:00:00 -- -- -- -- -- -- -- -- --
2020-06-20 05:00:00 -- -- -- -- -- -- -- -- --
2020-06-20 04:00:00 -- -- -- -- -- -- -- -- --
2020-06-20 03:00:00 -- -- -- -- -- -- -- -- --
2020-06-20 02:00:00 -- -- -- -- -- -- -- -- --
2020-06-20 01:00:00 -- -- -- -- -- -- -- -- --
2020-06-20 00:00:00 -- -- -- -- -- -- -- -- --
2020-06-19 23:00:00 -- -- -- -- -- -- -- -- --
2020-06-19 22:00:00 -- -- -- -- -- -- -- -- --
2020-06-19 21:00:00 -- -- -- -- -- -- -- -- --
2020-06-19 20:00:00 -- -- -- -- -- -- -- -- --
2020-06-19 19:00:00 -- -- -- -- -- -- -- -- --
2020-06-19 18:00:00 -- -- -- -- -- -- -- -- --
2020-06-19 17:00:00 -- -- -- -- -- -- -- -- --
2020-06-19 16:00:00 -- -- -- -- -- -- -- -- --
2020-06-19 15:00:00 -- -- -- -- -- -- -- -- --
2020-06-19 14:00:00 -- -- -- -- -- -- -- -- --
2020-06-19 13:00:00 -- -- -- -- -- -- -- -- --
2020-06-19 12:00:00 -- -- -- -- -- -- -- -- --
2020-06-19 11:00:00 -- -- -- -- -- -- -- -- --
2020-06-19 10:00:00 -- -- -- -- -- -- -- -- --
2020-06-19 09:00:00 -- -- -- -- -- -- -- -- --
2020-06-19 08:00:00 -- -- -- -- -- -- -- -- --
2020-06-19 07:00:00 -- -- -- -- -- -- -- -- --
2020-06-19 06:00:00 -- -- -- -- -- -- -- -- --
2020-06-19 05:00:00 -- -- -- -- -- -- -- -- --
2020-06-19 04:00:00 -- -- -- -- -- -- -- -- --
2020-06-19 03:00:00 -- -- -- -- -- -- -- -- --
2020-06-19 02:00:00 -- -- -- -- -- -- -- -- --
2020-06-19 01:00:00 -- -- -- -- -- -- -- -- --
2020-06-19 00:00:00 -- -- -- -- -- -- -- -- --
2020-06-18 23:00:00 -- -- -- -- -- -- -- -- --
2020-06-18 22:00:00 -- -- -- -- -- -- -- -- --
2020-06-18 21:00:00 -- -- -- -- -- -- -- -- --
2020-06-18 20:00:00 -- -- -- -- -- -- -- -- --
2020-06-18 19:00:00 -- -- -- -- -- -- -- -- --
2020-06-18 18:00:00 -- -- -- -- -- -- -- -- --
2020-06-18 17:00:00 -- -- -- -- -- -- -- -- --
2020-06-18 16:00:00 -- -- -- -- -- -- -- -- --
2020-06-18 15:00:00 -- -- -- -- -- -- -- -- --
2020-06-18 14:00:00 -- -- -- -- -- -- -- -- --
2020-06-18 13:00:00 -- -- -- -- -- -- -- -- --
2020-06-18 12:00:00 -- -- -- -- -- -- -- -- --
2020-06-18 11:00:00 -- -- -- -- -- -- -- -- --
2020-06-18 10:00:00 -- -- -- -- -- -- -- -- --
2020-06-18 09:00:00 -- -- -- -- -- -- -- -- --
2020-06-18 08:00:00 -- -- -- -- -- -- -- -- --
2020-06-18 07:00:00 -- -- -- -- -- -- -- -- --
2020-06-18 06:00:00 -- -- -- -- -- -- -- -- --
2020-06-18 05:00:00 -- -- -- -- -- -- -- -- --
2020-06-18 04:00:00 -- -- -- -- -- -- -- -- --
2020-06-18 03:00:00 -- -- -- -- -- -- -- -- --
2020-06-18 02:00:00 -- -- -- -- -- -- -- -- --
2020-06-18 01:00:00 -- -- -- -- -- -- -- -- --
2020-06-18 00:00:00 -- -- -- -- -- -- -- -- --
2020-06-17 23:00:00 -- -- -- -- -- -- -- -- --
2020-06-17 22:00:00 -- -- -- -- -- -- -- -- --
2020-06-17 21:00:00 -- -- -- -- -- -- -- -- --
2020-06-17 20:00:00 -- -- -- -- -- -- -- -- --
2020-06-17 19:00:00 -- -- -- -- -- -- -- -- --
2020-06-17 18:00:00 -- -- -- -- -- -- -- -- --
2020-06-17 17:00:00 -- -- -- -- -- -- -- -- --
2020-06-17 16:00:00 -- -- -- -- -- -- -- -- --
2020-06-17 15:00:00 -- -- -- -- -- -- -- -- --
2020-06-17 14:00:00 -- -- -- -- -- -- -- -- --
2020-06-17 13:00:00 -- -- -- -- -- -- -- -- --
2020-06-17 12:00:00 -- -- -- -- -- -- -- -- --
2020-06-17 11:00:00 -- -- -- -- -- -- -- -- --
2020-06-17 10:00:00 -- -- -- -- -- -- -- -- --
2020-06-17 09:00:00 -- -- -- -- -- -- -- -- --
2020-06-17 08:00:00 13.8 9 Norte 13 Norte 0 933.5 -- 69
2020-06-17 07:00:00 11.7 7 Norte 12 Norte 0 933 -- 76
2020-06-17 06:00:00 12 6 Norte 9 Noroeste 0 932.9 -- 75
2020-06-17 05:00:00 13 5 Noroeste 9 Noroeste 0 933 -- 72
2020-06-17 04:00:00 13.9 2 Sudoeste 7 Noroeste 0 933.1 -- 70
2020-06-17 03:00:00 14.7 4 Noroeste 5 Noroeste 0 933.8 -- 67
2020-06-17 02:00:00 15.1 0 Calma 10 Sur 0 934.2 -- 65
2020-06-17 01:00:00 15.5 5 Sudeste 25 Este 0 934.3 -- 62
2020-06-17 00:00:00 17.5 13 Este 25 Nordeste 0 934.5 -- 53
2020-06-16 23:00:00 19.4 16 Este 29 Nordeste 0 934.1 -- 47
2020-06-16 22:00:00 20.8 9 Norte 24 Norte 0 933.4 -- 36
2020-06-16 21:00:00 23.2 18 Norte 39 Norte 0 932.9 -- 29
2020-06-16 20:00:00 24.6 24 Norte 40 Norte 0 932.6 -- 26
2020-06-16 19:00:00 26.2 23 Norte 44 Nordeste 0 932.5 -- 25
2020-06-16 18:00:00 25.3 25 Norte 46 Norte 0 932.8 -- 28
2020-06-16 17:00:00 25.5 24 Nordeste 54 Norte 0 933.1 -- 31
2020-06-16 16:00:00 26.3 22 Norte 44 Norte 0 933.5 -- 30
2020-06-16 15:00:00 24.9 23 Norte 42 Norte 0 933.9 -- 33
2020-06-16 14:00:00 25.3 18 Norte 40 Norte 0 934.3 -- 33
2020-06-16 13:00:00 23.6 24 Norte 40 Norte 0 935 -- 36
2020-06-16 12:00:00 22.8 21 Norte 37 Norte 0 935.1 -- 41
2020-06-16 11:00:00 21.6 18 Norte 27 Norte 0 935.5 -- 42
2020-06-16 10:00:00 19.6 13 Norte 21 Norte 0 935.9 -- 48
2020-06-16 09:00:00 17.2 14 Norte 21 Norte 0 935.9 -- 52
2020-06-16 08:00:00 14.2 10 Norte 13 Norte 0 935.8 -- 55
2020-06-16 07:00:00 12.8 13 Norte 14 Norte 0 935.5 -- 55
2020-06-16 06:00:00 13.7 10 Norte 12 Norte 0 935.1 -- 51
2020-06-16 05:00:00 14.5 10 Norte 15 Norte 0 935.1 -- 48
2020-06-16 04:00:00 15.8 8 Norte 10 Norte 0 935 -- 45
2020-06-16 03:00:00 16.6 5 Noroeste 9 Norte 0 935.6 -- 43
2020-06-16 02:00:00 17.5 6 Norte 15 Noroeste 0 935.9 -- 38
2020-06-16 01:00:00 18.6 11 Noroeste 21 Noroeste 0 936.2 -- 32
2020-06-16 00:00:00 18.3 12 Nordeste 22 Norte 0 936.1 -- 34
2020-06-15 23:00:00 19 5 Norte 17 Nordeste 0 936.2 -- 35
2020-06-15 22:00:00 20.4 10 Norte 24 Norte 0 935.8 -- 30
2020-06-15 21:00:00 24.3 16 Norte 33 Noroeste 0 935.4 -- 24
2020-06-15 20:00:00 26.5 21 Norte 38 Norte 0 935.4 -- 21
2020-06-15 19:00:00 27.2 22 Norte 42 Norte 0 935.4 -- 20
2020-06-15 18:00:00 27.2 27 Norte 49 Norte 0 935.8 -- 19
2020-06-15 17:00:00 27.3 21 Noroeste 45 Noroeste 0 936 -- 20
2020-06-15 16:00:00 27.1 22 Norte 40 Norte 0 936.5 -- 21
2020-06-15 15:00:00 26 23 Norte 42 Noroeste 0 937.1 -- 23
2020-06-15 14:00:00 25.1 23 Norte 37 Norte 0 937.7 -- 25
2020-06-15 13:00:00 23.8 18 Norte 42 Noroeste 0 937.9 -- 32
2020-06-15 12:00:00 22.6 18 Norte 40 Noroeste 0 938.2 -- 34
2020-06-15 11:00:00 21.4 14 Noroeste 24 Noroeste 0 938.3 -- 40
2020-06-15 10:00:00 18.9 16 Norte 25 Norte 0 938.4 -- 45
2020-06-15 09:00:00 16.5 17 Norte 25 Norte 0 938.3 -- 49
2020-06-15 08:00:00 13.8 7 Norte 11 Norte 0 938.2 -- 52
2020-06-15 07:00:00 11.3 10 Norte 11 Norte 0 937.7 -- 59
2020-06-15 06:00:00 11.3 9 Norte 13 Norte 0 937.3 -- 61
2020-06-15 05:00:00 12 9 Norte 11 Norte 0 936.9 -- 60
2020-06-15 04:00:00 12.2 10 Norte 13 Noroeste 0 936.9 -- 63
2020-06-15 03:00:00 13.1 9 Norte 13 Norte 0 937 -- 60
2020-06-15 02:00:00 13.8 9 Norte 11 Noroeste 0 937.1 -- 61
2020-06-15 01:00:00 15.1 8 Norte 12 Norte 0 936.9 -- 55
2020-06-15 00:00:00 17 11 Nordeste 17 Norte 0 936.6 -- 48
2020-06-14 23:00:00 18.3 12 Norte 15 Norte 0 936.3 -- 42
2020-06-14 22:00:00 20.3 6 Norte 15 Norte 0 935.6 -- 37
2020-06-14 21:00:00 23.5 11 Norte 31 Nordeste 0 935.1 -- 29
2020-06-14 20:00:00 25.4 21 Norte 37 Norte 0 934.9 -- 25
2020-06-14 19:00:00 25.9 23 Norte 41 Norte 0 934.4 -- 24
2020-06-14 18:00:00 26.2 14 Noroeste 38 Norte 0 934.5 -- 26
2020-06-14 17:00:00 25.8 17 Norte 37 Norte 0 934.7 -- 26
2020-06-14 16:00:00 24.7 18 Norte 40 Norte 0 935.3 -- 27
2020-06-14 15:00:00 24.2 18 Norte 39 Norte 0 935.7 -- 29
2020-06-14 14:00:00 23.8 17 Norte 50 Norte 0 936.2 -- 32
2020-06-14 13:00:00 22.2 15 Norte 37 Norte 0 936.6 -- 34
2020-06-14 12:00:00 21.7 15 Norte 31 Norte 0 936.6 -- 35
2020-06-14 11:00:00 20.3 12 Noroeste 22 Noroeste 0 936.5 -- 40
2020-06-14 10:00:00 18 7 Norte 14 Norte 0 936.5 -- 48
2020-06-14 09:00:00 13.9 6 Norte 10 Norte 0 936.2 -- 62
2020-06-14 08:00:00 11.5 2 Nordeste 6 Nordeste 0 935.8 -- 76
2020-06-14 07:00:00 10.6 4 Nordeste 5 Nordeste 0 935.3 -- 77
2020-06-14 06:00:00 10.3 0 Calma 5 Este 0 935 -- 79
2020-06-14 05:00:00 10.8 2 Este 6 Este 0 934.9 -- 73
2020-06-14 04:00:00 11 2 Sudeste 7 Este 0 934.7 -- 71
2020-06-14 03:00:00 11 2 Este 12 Este 0 934.8 -- 71
2020-06-14 02:00:00 11.9 5 Este 7 Este 0 934.8 -- 67
2020-06-14 01:00:00 13.2 2 Sudoeste 14 Nordeste 0 934.8 -- 61
2020-06-14 00:00:00 13.9 11 Norte 15 Nordeste 0 934.6 -- 56
2020-06-13 23:00:00 16.2 10 Nordeste 15 Nordeste 0 934.4 -- 46
2020-06-13 22:00:00 17.7 8 Norte 17 Norte 0 933.4 -- 41
2020-06-13 21:00:00 20.4 12 Norte 19 Noroeste 0 933 -- 34
2020-06-13 20:00:00 23.1 16 Norte 28 Norte 0 932.7 -- 28
2020-06-13 19:00:00 23.3 14 Nordeste 39 Norte 0 932.2 -- 28
2020-06-13 18:00:00 23.1 11 Nordeste 32 Nordeste 0 932.3 -- 30
2020-06-13 17:00:00 22.9 14 Norte 32 Norte 0 932.5 -- 30
2020-06-13 16:00:00 22.9 13 Norte 36 Norte 0 932.7 -- 32
2020-06-13 15:00:00 21 12 Norte 33 Norte 0 932.8 -- 36
2020-06-13 14:00:00 20 15 Norte 32 Norte 0 933.1 -- 38
2020-06-13 13:00:00 18 16 Norte 34 Norte 0 933.2 -- 43
2020-06-13 12:00:00 17 20 Norte 35 Nordeste 0 933.1 -- 48
2020-06-13 11:00:00 15.9 21 Norte 33 Norte 0 932.9 -- 53
2020-06-13 10:00:00 14.6 18 Norte 27 Norte 0 932.3 -- 61
2020-06-13 09:00:00 12.6 16 Norte 26 Norte 0 931.7 -- 73
2020-06-13 08:00:00 10.3 12 Norte 15 Norte 0 931.1 -- 81
2020-06-13 07:00:00 8.5 7 Nordeste 9 Nordeste 0 930.6 -- 84
2020-06-13 06:00:00 8.7 8 Nordeste 13 Nordeste 0 930.3 -- 83
2020-06-13 05:00:00 8.7 6 Nordeste 11 Norte 0 929.7 -- 83
2020-06-13 04:00:00 9.4 5 Norte 12 Norte 0 929.3 -- 80
2020-06-13 03:00:00 10.7 5 Norte 8 Nordeste 0 929.2 -- 75
2020-06-13 02:00:00 11.4 9 Nordeste 27 Nordeste 0 929 -- 70
2020-06-13 01:00:00 13 19 Nordeste 36 Nordeste 0 929 -- 64
2020-06-13 00:00:00 15.4 14 Norte 23 Norte 0 928.1 -- 46
2020-06-12 23:00:00 16.1 11 Noroeste 23 Norte 0 927.5 -- 45
2020-06-12 22:00:00 16.7 17 Norte 37 Noroeste 0 926.8 -- 42
2020-06-12 21:00:00 17.8 25 Norte 39 Norte 0 926.4 -- 38
2020-06-12 20:00:00 18.1 22 Norte 42 Norte 0 925.8 -- 36
2020-06-12 19:00:00 19.7 29 Norte 48 Norte 0 925.3 -- 33
2020-06-12 18:00:00 20 29 Norte 49 Norte 0 925.1 -- 33
2020-06-12 17:00:00 20.1 33 Norte 57 Noroeste 0 925.1 -- 34
2020-06-12 16:00:00 19.4 29 Noroeste 58 Norte 0 925.1 -- 35
2020-06-12 15:00:00 19.4 32 Norte 53 Noroeste 0 925 -- 35
2020-06-12 14:00:00 18.2 26 Norte 46 Norte 0 925.2 -- 37
2020-06-12 13:00:00 17.9 22 Norte 47 Norte 0 925.4 -- 41
2020-06-12 12:00:00 15.8 22 Noroeste 41 Noroeste 0 925.5 -- 44
2020-06-12 11:00:00 14.1 24 Norte 43 Norte 0 925.4 -- 49
2020-06-12 10:00:00 13.6 24 Norte 40 Norte 0 925.3 -- 52
2020-06-12 09:00:00 13.2 22 Norte 42 Norte 0 925 -- 55
2020-06-12 08:00:00 11.5 29 Norte 46 Norte 0 924.7 -- 63
2020-06-12 07:00:00 11.9 18 Norte 42 Norte 0 924.3 -- 63
2020-06-12 06:00:00 12.3 24 Norte 48 Norte 0 924.1 -- 62
2020-06-12 05:00:00 13.3 23 Norte 36 Norte 0 923.7 -- 61
2020-06-12 04:00:00 14.3 22 Norte 39 Norte 0 923.5 -- 66
2020-06-12 03:00:00 14.8 26 Norte 47 Norte 0 923.3 -- 67
2020-06-12 02:00:00 15.9 30 Norte 51 Norte 0 923.4 -- 61
2020-06-12 01:00:00 16.4 28 Norte 56 Norte 0 923.6 -- 60
2020-06-12 00:00:00 17.3 29 Norte 51 Noroeste 0 923.4 -- 52